sensor_id;sensor_type;location;lat;lon;timestamp;temperature;humidity
21508;DHT22;10915;54.352;9.074;2022-11-25T00:01:59;3.80;99.90
21508;DHT22;10915;54.352;9.074;2022-11-25T00:04:25;3.80;99.90
21508;DHT22;10915;54.352;9.074;2022-11-25T00:06:51;3.80;99.90
21508;DHT22;10915;54.352;9.074;2022-11-25T00:09:16;3.80;99.90
21508;DHT22;10915;54.352;9.074;2022-11-25T00:11:42;3.70;99.90
21508;DHT22;10915;54.352;9.074;2022-11-25T00:14:13;3.70;99.90
21508;DHT22;10915;54.352;9.074;2022-11-25T00:16:39;3.70;99.90
21508;DHT22;10915;54.352;9.074;2022-11-25T00:19:05;3.70;99.90
21508;DHT22;10915;54.352;9.074;2022-11-25T00:21:32;3.70;99.90
21508;DHT22;10915;54.352;9.074;2022-11-25T00:24:04;3.70;99.90
21508;DHT22;10915;54.352;9.074;2022-11-25T00:26:31;3.60;99.90
21508;DHT22;10915;54.352;9.074;2022-11-25T00:28:59;3.60;99.90
21508;DHT22;10915;54.352;9.074;2022-11-25T00:31:27;3.60;99.90
21508;DHT22;10915;54.352;9.074;2022-11-25T00:33:54;3.50;99.90
21508;DHT22;10915;54.352;9.074;2022-11-25T00:36:24;3.60;99.90
21508;DHT22;10915;54.352;9.074;2022-11-25T00:39:04;3.60;99.90
21508;DHT22;10915;54.352;9.074;2022-11-25T00:41:30;3.70;99.90
21508;DHT22;10915;54.352;9.074;2022-11-25T00:44:17;3.70;99.90
21508;DHT22;10915;54.352;9.074;2022-11-25T00:47:21;3.70;99.90
21508;DHT22;10915;54.352;9.074;2022-11-25T00:49:49;3.80;99.90
21508;DHT22;10915;54.352;9.074;2022-11-25T00:52:18;3.80;99.90
21508;DHT22;10915;54.352;9.074;2022-11-25T00:54:45;3.70;99.90
21508;DHT22;10915;54.352;9.074;2022-11-25T00:57:13;3.60;99.90
21508;DHT22;10915;54.352;9.074;2022-11-25T00:59:39;3.40;99.90
21508;DHT22;10915;54.352;9.074;2022-11-25T01:02:04;3.50;99.90
21508;DHT22;10915;54.352;9.074;2022-11-25T01:04:30;3.50;99.90
21508;DHT22;10915;54.352;9.074;2022-11-25T01:06:56;3.60;99.90
21508;DHT22;10915;54.352;9.074;2022-11-25T01:09:24;3.50;99.90
21508;DHT22;10915;54.352;9.074;2022-11-25T01:11:51;3.50;99.90
21508;DHT22;10915;54.352;9.074;2022-11-25T01:14:18;3.50;99.90
21508;DHT22;10915;54.352;9.074;2022-11-25T01:16:44;3.50;99.90
21508;DHT22;10915;54.352;9.074;2022-11-25T01:19:10;3.50;99.90
21508;DHT22;10915;54.352;9.074;2022-11-25T01:21:37;3.50;99.90
21508;DHT22;10915;54.352;9.074;2022-11-25T01:24:04;3.40;99.90
21508;DHT22;10915;54.352;9.074;2022-11-25T01:26:30;3.40;99.90
21508;DHT22;10915;54.352;9.074;2022-11-25T01:28:59;3.50;99.90
21508;DHT22;10915;54.352;9.074;2022-11-25T01:31:27;3.50;99.90
21508;DHT22;10915;54.352;9.074;2022-11-25T01:34:06;3.50;99.90
21508;DHT22;10915;54.352;9.074;2022-11-25T01:36:32;3.60;99.90
21508;DHT22;10915;54.352;9.074;2022-11-25T01:38:59;3.50;99.90
21508;DHT22;10915;54.352;9.074;2022-11-25T01:41:30;3.60;99.90
21508;DHT22;10915;54.352;9.074;2022-11-25T01:44:14;3.60;99.90
21508;DHT22;10915;54.352;9.074;2022-11-25T01:47:08;3.60;99.90
21508;DHT22;10915;54.352;9.074;2022-11-25T01:49:50;3.70;99.90
21508;DHT22;10915;54.352;9.074;2022-11-25T01:52:45;3.70;99.90
21508;DHT22;10915;54.352;9.074;2022-11-25T01:55:16;3.80;99.90
21508;DHT22;10915;54.352;9.074;2022-11-25T01:58:05;3.90;99.90
21508;DHT22;10915;54.352;9.074;2022-11-25T02:00:32;3.90;99.90
21508;DHT22;10915;54.352;9.074;2022-11-25T02:02:58;3.90;99.90
21508;DHT22;10915;54.352;9.074;2022-11-25T02:07:57;4.00;99.90
21508;DHT22;10915;54.352;9.074;2022-11-25T02:10:28;4.00;99.90
21508;DHT22;10915;54.352;9.074;2022-11-25T02:12:56;4.00;99.90
21508;DHT22;10915;54.352;9.074;2022-11-25T02:15:22;4.10;99.90
21508;DHT22;10915;54.352;9.074;2022-11-25T02:17:52;4.10;99.90
21508;DHT22;10915;54.352;9.074;2022-11-25T02:20:20;4.10;99.90
21508;DHT22;10915;54.352;9.074;2022-11-25T02:25:33;4.20;99.90
21508;DHT22;10915;54.352;9.074;2022-11-25T02:28:04;4.20;99.90
21508;DHT22;10915;54.352;9.074;2022-11-25T02:30:30;4.20;99.90
21508;DHT22;10915;54.352;9.074;2022-11-25T02:32:57;4.30;99.90
21508;DHT22;10915;54.352;9.074;2022-11-25T02:37:49;4.30;99.90
21508;DHT22;10915;54.352;9.074;2022-11-25T02:40:15;4.30;99.90
21508;DHT22;10915;54.352;9.074;2022-11-25T02:42:40;4.30;99.90
21508;DHT22;10915;54.352;9.074;2022-11-25T02:45:11;4.40;99.90
21508;DHT22;10915;54.352;9.074;2022-11-25T02:47:38;4.30;99.90
21508;DHT22;10915;54.352;9.074;2022-11-25T02:50:04;4.40;99.90
21508;DHT22;10915;54.352;9.074;2022-11-25T02:52:30;4.40;99.90
21508;DHT22;10915;54.352;9.074;2022-11-25T02:54:55;4.40;99.90
21508;DHT22;10915;54.352;9.074;2022-11-25T02:57:21;4.40;99.90
21508;DHT22;10915;54.352;9.074;2022-11-25T02:59:47;4.40;99.90
21508;DHT22;10915;54.352;9.074;2022-11-25T03:02:13;4.50;99.90
21508;DHT22;10915;54.352;9.074;2022-11-25T03:04:38;4.50;99.90
21508;DHT22;10915;54.352;9.074;2022-11-25T03:07:04;4.50;99.90
21508;DHT22;10915;54.352;9.074;2022-11-25T03:09:30;4.50;99.90
21508;DHT22;10915;54.352;9.074;2022-11-25T03:11:55;4.60;99.90
21508;DHT22;10915;54.352;9.074;2022-11-25T03:14:39;4.50;99.90
21508;DHT22;10915;54.352;9.074;2022-11-25T03:17:05;4.50;99.90
21508;DHT22;10915;54.352;9.074;2022-11-25T03:19:30;4.50;99.90
21508;DHT22;10915;54.352;9.074;2022-11-25T03:21:56;4.50;99.90
21508;DHT22;10915;54.352;9.074;2022-11-25T03:24:21;4.50;99.90
21508;DHT22;10915;54.352;9.074;2022-11-25T03:26:47;4.50;99.90
21508;DHT22;10915;54.352;9.074;2022-11-25T03:29:13;4.50;99.90
21508;DHT22;10915;54.352;9.074;2022-11-25T03:31:38;4.50;99.90
21508;DHT22;10915;54.352;9.074;2022-11-25T03:34:05;4.50;99.90
21508;DHT22;10915;54.352;9.074;2022-11-25T03:36:30;4.50;99.90
21508;DHT22;10915;54.352;9.074;2022-11-25T03:38:56;4.40;99.90
21508;DHT22;10915;54.352;9.074;2022-11-25T03:41:21;4.40;99.90
21508;DHT22;10915;54.352;9.074;2022-11-25T03:43:47;4.40;99.90
21508;DHT22;10915;54.352;9.074;2022-11-25T03:46:13;4.30;99.90
21508;DHT22;10915;54.352;9.074;2022-11-25T03:48:39;4.30;99.90
21508;DHT22;10915;54.352;9.074;2022-11-25T03:51:05;4.30;99.90
21508;DHT22;10915;54.352;9.074;2022-11-25T03:53:30;4.30;99.90
21508;DHT22;10915;54.352;9.074;2022-11-25T03:55:56;4.20;99.90
21508;DHT22;10915;54.352;9.074;2022-11-25T03:58:22;4.20;99.90
21508;DHT22;10915;54.352;9.074;2022-11-25T04:00:47;4.20;99.90
21508;DHT22;10915;54.352;9.074;2022-11-25T04:03:13;4.10;99.90
21508;DHT22;10915;54.352;9.074;2022-11-25T04:05:39;4.20;99.90
21508;DHT22;10915;54.352;9.074;2022-11-25T04:08:04;4.20;99.90
21508;DHT22;10915;54.352;9.074;2022-11-25T04:10:30;4.20;99.90
21508;DHT22;10915;54.352;9.074;2022-11-25T04:12:55;4.20;99.90
21508;DHT22;10915;54.352;9.074;2022-11-25T04:15:21;4.30;99.90
21508;DHT22;10915;54.352;9.074;2022-11-25T04:17:47;4.30;99.90
21508;DHT22;10915;54.352;9.074;2022-11-25T04:20:13;4.40;99.90
21508;DHT22;10915;54.352;9.074;2022-11-25T04:22:39;4.40;99.90
21508;DHT22;10915;54.352;9.074;2022-11-25T04:25:06;4.40;99.90
21508;DHT22;10915;54.352;9.074;2022-11-25T04:27:32;4.40;99.90
21508;DHT22;10915;54.352;9.074;2022-11-25T04:32:32;4.40;99.90
21508;DHT22;10915;54.352;9.074;2022-11-25T04:34:58;4.40;99.90
21508;DHT22;10915;54.352;9.074;2022-11-25T04:37:24;4.40;99.90
21508;DHT22;10915;54.352;9.074;2022-11-25T04:39:49;4.40;99.90
21508;DHT22;10915;54.352;9.074;2022-11-25T04:42:15;4.40;99.90
21508;DHT22;10915;54.352;9.074;2022-11-25T04:44:56;4.30;99.90
21508;DHT22;10915;54.352;9.074;2022-11-25T04:47:22;4.40;99.90
21508;DHT22;10915;54.352;9.074;2022-11-25T04:49:47;4.40;99.90
21508;DHT22;10915;54.352;9.074;2022-11-25T04:52:13;4.40;99.90
21508;DHT22;10915;54.352;9.074;2022-11-25T04:54:39;4.50;99.90
21508;DHT22;10915;54.352;9.074;2022-11-25T04:57:05;4.60;99.90
21508;DHT22;10915;54.352;9.074;2022-11-25T04:59:30;4.70;99.90
21508;DHT22;10915;54.352;9.074;2022-11-25T05:02:26;4.70;99.90
21508;DHT22;10915;54.352;9.074;2022-11-25T05:04:55;4.90;99.90
21508;DHT22;10915;54.352;9.074;2022-11-25T05:07:23;4.90;99.90
21508;DHT22;10915;54.352;9.074;2022-11-25T05:09:49;5.00;99.90
21508;DHT22;10915;54.352;9.074;2022-11-25T05:12:18;5.00;99.90
21508;DHT22;10915;54.352;9.074;2022-11-25T05:14:45;5.00;99.90
21508;DHT22;10915;54.352;9.074;2022-11-25T05:17:16;5.10;99.90
21508;DHT22;10915;54.352;9.074;2022-11-25T05:19:42;5.10;99.90
21508;DHT22;10915;54.352;9.074;2022-11-25T05:22:11;5.10;99.90
21508;DHT22;10915;54.352;9.074;2022-11-25T05:24:37;5.20;99.90
21508;DHT22;10915;54.352;9.074;2022-11-25T05:27:02;5.20;99.90
21508;DHT22;10915;54.352;9.074;2022-11-25T05:29:28;5.20;99.90
21508;DHT22;10915;54.352;9.074;2022-11-25T05:31:54;5.20;99.90
21508;DHT22;10915;54.352;9.074;2022-11-25T05:34:20;5.20;99.90
21508;DHT22;10915;54.352;9.074;2022-11-25T05:36:45;5.30;99.90
21508;DHT22;10915;54.352;9.074;2022-11-25T05:39:11;5.20;99.90
21508;DHT22;10915;54.352;9.074;2022-11-25T05:41:37;5.30;99.90
21508;DHT22;10915;54.352;9.074;2022-11-25T05:44:02;5.30;99.90
21508;DHT22;10915;54.352;9.074;2022-11-25T05:46:30;5.40;99.90
21508;DHT22;10915;54.352;9.074;2022-11-25T05:48:56;5.40;99.90
21508;DHT22;10915;54.352;9.074;2022-11-25T05:51:23;5.50;99.90
21508;DHT22;10915;54.352;9.074;2022-11-25T05:53:50;5.50;99.90
21508;DHT22;10915;54.352;9.074;2022-11-25T05:56:16;5.60;99.90
21508;DHT22;10915;54.352;9.074;2022-11-25T05:58:42;5.60;99.90
21508;DHT22;10915;54.352;9.074;2022-11-25T06:01:09;5.70;99.90
21508;DHT22;10915;54.352;9.074;2022-11-25T06:03:35;5.70;99.90
21508;DHT22;10915;54.352;9.074;2022-11-25T06:06:02;5.70;99.90
21508;DHT22;10915;54.352;9.074;2022-11-25T06:08:28;5.70;99.90
21508;DHT22;10915;54.352;9.074;2022-11-25T06:10:54;5.80;99.90
21508;DHT22;10915;54.352;9.074;2022-11-25T06:13:20;5.80;99.90
21508;DHT22;10915;54.352;9.074;2022-11-25T06:15:47;5.80;99.90
21508;DHT22;10915;54.352;9.074;2022-11-25T06:18:14;5.80;99.90
21508;DHT22;10915;54.352;9.074;2022-11-25T06:20:40;5.90;99.90
21508;DHT22;10915;54.352;9.074;2022-11-25T06:23:06;5.90;99.90
21508;DHT22;10915;54.352;9.074;2022-11-25T06:25:32;5.90;99.90
21508;DHT22;10915;54.352;9.074;2022-11-25T06:27:58;5.90;99.90
21508;DHT22;10915;54.352;9.074;2022-11-25T06:30:24;5.90;99.90
21508;DHT22;10915;54.352;9.074;2022-11-25T06:32:50;5.90;99.90
21508;DHT22;10915;54.352;9.074;2022-11-25T06:35:18;6.00;99.90
21508;DHT22;10915;54.352;9.074;2022-11-25T06:37:43;6.10;99.90
21508;DHT22;10915;54.352;9.074;2022-11-25T06:40:09;6.10;99.90
21508;DHT22;10915;54.352;9.074;2022-11-25T06:42:37;6.10;99.90
21508;DHT22;10915;54.352;9.074;2022-11-25T06:45:03;6.10;99.90
21508;DHT22;10915;54.352;9.074;2022-11-25T06:47:29;6.20;99.90
21508;DHT22;10915;54.352;9.074;2022-11-25T06:49:55;6.20;99.90
21508;DHT22;10915;54.352;9.074;2022-11-25T06:52:20;6.20;99.90
21508;DHT22;10915;54.352;9.074;2022-11-25T06:54:46;6.20;99.90
21508;DHT22;10915;54.352;9.074;2022-11-25T06:57:16;6.30;99.90
21508;DHT22;10915;54.352;9.074;2022-11-25T06:59:42;6.30;99.90
21508;DHT22;10915;54.352;9.074;2022-11-25T07:02:11;6.30;99.90
21508;DHT22;10915;54.352;9.074;2022-11-25T07:04:37;6.30;99.90
21508;DHT22;10915;54.352;9.074;2022-11-25T07:07:02;6.30;99.90
21508;DHT22;10915;54.352;9.074;2022-11-25T07:09:29;6.30;99.90
21508;DHT22;10915;54.352;9.074;2022-11-25T07:11:54;6.30;99.90
21508;DHT22;10915;54.352;9.074;2022-11-25T07:14:20;6.40;99.90
21508;DHT22;10915;54.352;9.074;2022-11-25T07:16:46;6.30;99.90
21508;DHT22;10915;54.352;9.074;2022-11-25T07:19:14;6.30;99.90
21508;DHT22;10915;54.352;9.074;2022-11-25T07:21:41;6.40;99.90
21508;DHT22;10915;54.352;9.074;2022-11-25T07:24:09;6.40;99.90
21508;DHT22;10915;54.352;9.074;2022-11-25T07:26:37;6.40;99.90
21508;DHT22;10915;54.352;9.074;2022-11-25T07:29:09;6.40;99.90
21508;DHT22;10915;54.352;9.074;2022-11-25T07:31:38;6.40;99.90
21508;DHT22;10915;54.352;9.074;2022-11-25T07:34:09;6.40;99.90
21508;DHT22;10915;54.352;9.074;2022-11-25T07:36:36;6.40;99.90
21508;DHT22;10915;54.352;9.074;2022-11-25T07:39:05;6.40;99.90
21508;DHT22;10915;54.352;9.074;2022-11-25T07:41:31;6.40;99.90
21508;DHT22;10915;54.352;9.074;2022-11-25T07:43:59;6.40;99.90
21508;DHT22;10915;54.352;9.074;2022-11-25T07:46:27;6.50;99.90
21508;DHT22;10915;54.352;9.074;2022-11-25T07:48:55;6.40;99.90
21508;DHT22;10915;54.352;9.074;2022-11-25T07:53:55;6.50;99.90
21508;DHT22;10915;54.352;9.074;2022-11-25T07:56:21;6.50;99.90
21508;DHT22;10915;54.352;9.074;2022-11-25T07:58:47;6.50;99.90
21508;DHT22;10915;54.352;9.074;2022-11-25T08:01:19;6.60;99.90
21508;DHT22;10915;54.352;9.074;2022-11-25T08:03:48;6.60;99.90
21508;DHT22;10915;54.352;9.074;2022-11-25T08:06:17;6.60;99.90
21508;DHT22;10915;54.352;9.074;2022-11-25T08:08:43;6.60;99.90
21508;DHT22;10915;54.352;9.074;2022-11-25T08:11:14;6.60;99.90
21508;DHT22;10915;54.352;9.074;2022-11-25T08:13:40;6.60;99.90
21508;DHT22;10915;54.352;9.074;2022-11-25T08:16:06;6.60;99.90
21508;DHT22;10915;54.352;9.074;2022-11-25T08:18:32;6.60;99.90
21508;DHT22;10915;54.352;9.074;2022-11-25T08:21:03;6.70;99.90
21508;DHT22;10915;54.352;9.074;2022-11-25T08:23:30;6.70;99.90
21508;DHT22;10915;54.352;9.074;2022-11-25T08:25:56;6.60;99.90
21508;DHT22;10915;54.352;9.074;2022-11-25T08:28:23;6.70;99.90
21508;DHT22;10915;54.352;9.074;2022-11-25T08:30:49;6.70;99.90
21508;DHT22;10915;54.352;9.074;2022-11-25T08:33:15;6.70;99.90
21508;DHT22;10915;54.352;9.074;2022-11-25T08:35:40;6.70;99.90
21508;DHT22;10915;54.352;9.074;2022-11-25T08:38:08;6.70;99.90
21508;DHT22;10915;54.352;9.074;2022-11-25T08:40:35;6.70;99.90
21508;DHT22;10915;54.352;9.074;2022-11-25T08:43:02;6.70;99.90
21508;DHT22;10915;54.352;9.074;2022-11-25T08:45:28;6.70;99.90
21508;DHT22;10915;54.352;9.074;2022-11-25T08:47:54;6.80;99.90
21508;DHT22;10915;54.352;9.074;2022-11-25T08:50:21;6.80;99.90
21508;DHT22;10915;54.352;9.074;2022-11-25T08:52:49;6.80;99.90
21508;DHT22;10915;54.352;9.074;2022-11-25T08:55:14;6.80;99.90
21508;DHT22;10915;54.352;9.074;2022-11-25T08:57:40;6.80;99.90
21508;DHT22;10915;54.352;9.074;2022-11-25T09:00:06;6.80;99.90
21508;DHT22;10915;54.352;9.074;2022-11-25T09:02:32;6.80;99.90
21508;DHT22;10915;54.352;9.074;2022-11-25T09:04:58;6.80;99.90
21508;DHT22;10915;54.352;9.074;2022-11-25T09:07:24;6.80;99.90
21508;DHT22;10915;54.352;9.074;2022-11-25T09:09:50;6.80;99.90
21508;DHT22;10915;54.352;9.074;2022-11-25T09:12:15;6.90;99.90
21508;DHT22;10915;54.352;9.074;2022-11-25T09:14:41;6.90;99.90
21508;DHT22;10915;54.352;9.074;2022-11-25T09:17:11;6.90;99.90
21508;DHT22;10915;54.352;9.074;2022-11-25T09:19:37;6.90;99.90
21508;DHT22;10915;54.352;9.074;2022-11-25T09:22:03;6.90;99.90
21508;DHT22;10915;54.352;9.074;2022-11-25T09:24:29;7.00;99.90
21508;DHT22;10915;54.352;9.074;2022-11-25T09:26:55;6.90;99.90
21508;DHT22;10915;54.352;9.074;2022-11-25T09:29:20;7.00;99.90
21508;DHT22;10915;54.352;9.074;2022-11-25T09:31:46;7.00;99.90
21508;DHT22;10915;54.352;9.074;2022-11-25T09:34:12;7.00;99.90
21508;DHT22;10915;54.352;9.074;2022-11-25T09:36:37;7.00;99.90
21508;DHT22;10915;54.352;9.074;2022-11-25T09:39:04;7.00;99.90
21508;DHT22;10915;54.352;9.074;2022-11-25T09:48:04;6.90;99.90
21508;DHT22;10915;54.352;9.074;2022-11-25T09:53:53;6.90;99.90
21508;DHT22;10915;54.352;9.074;2022-11-25T09:56:40;6.90;99.90
21508;DHT22;10915;54.352;9.074;2022-11-25T10:01:57;6.90;99.90
21508;DHT22;10915;54.352;9.074;2022-11-25T10:04:36;6.90;99.90
21508;DHT22;10915;54.352;9.074;2022-11-25T10:07:10;6.90;99.90
21508;DHT22;10915;54.352;9.074;2022-11-25T10:09:39;6.90;99.90
21508;DHT22;10915;54.352;9.074;2022-11-25T10:12:26;6.90;99.90
21508;DHT22;10915;54.352;9.074;2022-11-25T10:14:59;6.90;99.90
21508;DHT22;10915;54.352;9.074;2022-11-25T10:17:43;7.00;99.90
21508;DHT22;10915;54.352;9.074;2022-11-25T10:20:20;7.00;99.90
21508;DHT22;10915;54.352;9.074;2022-11-25T10:22:51;7.10;99.90
21508;DHT22;10915;54.352;9.074;2022-11-25T10:25:27;7.10;99.90
21508;DHT22;10915;54.352;9.074;2022-11-25T10:33:23;7.10;99.90
21508;DHT22;10915;54.352;9.074;2022-11-25T12:36:46;8.20;99.90
21508;DHT22;10915;54.352;9.074;2022-11-25T12:39:27;8.30;99.90
21508;DHT22;10915;54.352;9.074;2022-11-25T12:42:00;8.30;99.90
21508;DHT22;10915;54.352;9.074;2022-11-25T12:47:13;8.40;99.90
21508;DHT22;10915;54.352;9.074;2022-11-25T12:49:44;8.40;99.90
21508;DHT22;10915;54.352;9.074;2022-11-25T12:52:23;8.40;99.90
21508;DHT22;10915;54.352;9.074;2022-11-25T12:55:17;8.50;99.90
21508;DHT22;10915;54.352;9.074;2022-11-25T13:03:55;8.80;99.90
21508;DHT22;10915;54.352;9.074;2022-11-25T13:06:47;8.90;99.90
21508;DHT22;10915;54.352;9.074;2022-11-25T13:11:54;9.00;99.90
21508;DHT22;10915;54.352;9.074;2022-11-25T13:17:09;9.00;99.90
21508;DHT22;10915;54.352;9.074;2022-11-25T13:19:36;9.00;99.90
21508;DHT22;10915;54.352;9.074;2022-11-25T13:22:04;9.10;99.90
21508;DHT22;10915;54.352;9.074;2022-11-25T13:24:41;9.10;99.90
21508;DHT22;10915;54.352;9.074;2022-11-25T13:27:32;9.00;99.90
21508;DHT22;10915;54.352;9.074;2022-11-25T13:29:59;9.00;99.90
21508;DHT22;10915;54.352;9.074;2022-11-25T13:32:31;9.00;99.90
21508;DHT22;10915;54.352;9.074;2022-11-25T13:37:57;9.10;99.90
21508;DHT22;10915;54.352;9.074;2022-11-25T13:42:54;9.10;99.90
21508;DHT22;10915;54.352;9.074;2022-11-25T13:45:33;9.10;99.90
21508;DHT22;10915;54.352;9.074;2022-11-25T13:48:17;9.10;99.90
21508;DHT22;10915;54.352;9.074;2022-11-25T13:50:45;9.10;99.90
21508;DHT22;10915;54.352;9.074;2022-11-25T13:53:35;9.10;99.90
21508;DHT22;10915;54.352;9.074;2022-11-25T13:56:27;9.10;99.90
21508;DHT22;10915;54.352;9.074;2022-11-25T14:01:52;9.10;99.90
21508;DHT22;10915;54.352;9.074;2022-11-25T14:04:33;9.20;99.90
21508;DHT22;10915;54.352;9.074;2022-11-25T14:07:12;9.20;99.90
21508;DHT22;10915;54.352;9.074;2022-11-25T14:09:45;9.20;99.90
21508;DHT22;10915;54.352;9.074;2022-11-25T14:17:24;9.20;99.90
21508;DHT22;10915;54.352;9.074;2022-11-25T14:23:06;9.10;99.90
21508;DHT22;10915;54.352;9.074;2022-11-25T14:26:09;9.20;99.90
21508;DHT22;10915;54.352;9.074;2022-11-25T14:28:46;9.00;99.90
21508;DHT22;10915;54.352;9.074;2022-11-25T14:31:21;9.00;99.90
21508;DHT22;10915;54.352;9.074;2022-11-25T14:33:59;9.00;99.90
21508;DHT22;10915;54.352;9.074;2022-11-25T14:36:35;8.90;99.90
21508;DHT22;10915;54.352;9.074;2022-11-25T14:39:12;8.90;99.90
21508;DHT22;10915;54.352;9.074;2022-11-25T14:41:59;8.90;99.90
21508;DHT22;10915;54.352;9.074;2022-11-25T14:44:32;8.90;99.90
21508;DHT22;10915;54.352;9.074;2022-11-25T14:47:03;8.90;99.90
21508;DHT22;10915;54.352;9.074;2022-11-25T14:49:49;8.90;99.90
21508;DHT22;10915;54.352;9.074;2022-11-25T14:52:37;8.90;99.90
21508;DHT22;10915;54.352;9.074;2022-11-25T14:55:04;8.90;99.90
21508;DHT22;10915;54.352;9.074;2022-11-25T14:57:36;8.90;99.90
21508;DHT22;10915;54.352;9.074;2022-11-25T15:00:11;8.80;99.90
21508;DHT22;10915;54.352;9.074;2022-11-25T15:02:51;8.80;99.90
21508;DHT22;10915;54.352;9.074;2022-11-25T15:05:19;8.80;99.90
21508;DHT22;10915;54.352;9.074;2022-11-25T15:10:42;8.70;99.90
21508;DHT22;10915;54.352;9.074;2022-11-25T15:15:53;8.80;99.90
21508;DHT22;10915;54.352;9.074;2022-11-25T15:18:22;8.70;99.90
21508;DHT22;10915;54.352;9.074;2022-11-25T15:20:51;8.70;99.90
21508;DHT22;10915;54.352;9.074;2022-11-25T15:23:22;8.80;99.90
21508;DHT22;10915;54.352;9.074;2022-11-25T15:25:50;8.80;99.90
21508;DHT22;10915;54.352;9.074;2022-11-25T15:28:16;8.80;99.90
21508;DHT22;10915;54.352;9.074;2022-11-25T15:30:41;8.80;99.90
21508;DHT22;10915;54.352;9.074;2022-11-25T15:33:19;8.80;99.90
21508;DHT22;10915;54.352;9.074;2022-11-25T15:35:46;8.80;99.90
21508;DHT22;10915;54.352;9.074;2022-11-25T15:38:17;8.80;99.90
21508;DHT22;10915;54.352;9.074;2022-11-25T15:40:54;8.80;99.90
21508;DHT22;10915;54.352;9.074;2022-11-25T15:43:22;8.80;99.90
21508;DHT22;10915;54.352;9.074;2022-11-25T15:45:49;8.80;99.90
21508;DHT22;10915;54.352;9.074;2022-11-25T15:48:31;8.80;99.90
21508;DHT22;10915;54.352;9.074;2022-11-25T15:51:28;8.80;99.90
21508;DHT22;10915;54.352;9.074;2022-11-25T15:54:17;8.80;99.90
21508;DHT22;10915;54.352;9.074;2022-11-25T15:56:46;8.80;99.90
21508;DHT22;10915;54.352;9.074;2022-11-25T16:02:01;8.80;99.90
21508;DHT22;10915;54.352;9.074;2022-11-25T16:04:26;8.80;99.90
21508;DHT22;10915;54.352;9.074;2022-11-25T16:06:56;8.80;99.90
21508;DHT22;10915;54.352;9.074;2022-11-25T16:09:24;8.70;99.90
21508;DHT22;10915;54.352;9.074;2022-11-25T16:11:51;8.80;99.90
21508;DHT22;10915;54.352;9.074;2022-11-25T16:14:27;8.70;99.90
21508;DHT22;10915;54.352;9.074;2022-11-25T16:17:04;8.70;99.90
21508;DHT22;10915;54.352;9.074;2022-11-25T16:19:38;8.60;99.90
21508;DHT22;10915;54.352;9.074;2022-11-25T16:22:04;8.70;99.90
21508;DHT22;10915;54.352;9.074;2022-11-25T16:24:37;8.70;99.90
21508;DHT22;10915;54.352;9.074;2022-11-25T16:27:20;8.70;99.90
21508;DHT22;10915;54.352;9.074;2022-11-25T16:32:31;8.70;99.90
21508;DHT22;10915;54.352;9.074;2022-11-25T16:35:16;8.70;99.90
21508;DHT22;10915;54.352;9.074;2022-11-25T16:40:15;8.70;99.90
21508;DHT22;10915;54.352;9.074;2022-11-25T16:42:45;8.70;99.90
21508;DHT22;10915;54.352;9.074;2022-11-25T16:45:21;8.70;99.90
21508;DHT22;10915;54.352;9.074;2022-11-25T16:47:47;8.60;99.90
21508;DHT22;10915;54.352;9.074;2022-11-25T16:50:14;8.60;99.90
21508;DHT22;10915;54.352;9.074;2022-11-25T16:52:40;8.60;99.90
21508;DHT22;10915;54.352;9.074;2022-11-25T16:55:07;8.60;99.90
21508;DHT22;10915;54.352;9.074;2022-11-25T16:57:34;8.60;99.90
21508;DHT22;10915;54.352;9.074;2022-11-25T17:00:03;8.60;99.90
21508;DHT22;10915;54.352;9.074;2022-11-25T17:02:33;8.60;99.90
21508;DHT22;10915;54.352;9.074;2022-11-25T17:05:21;8.70;99.90
21508;DHT22;10915;54.352;9.074;2022-11-25T17:07:48;8.70;99.90
21508;DHT22;10915;54.352;9.074;2022-11-25T17:10:18;8.80;99.90
21508;DHT22;10915;54.352;9.074;2022-11-25T17:12:45;8.80;99.90
21508;DHT22;10915;54.352;9.074;2022-11-25T17:15:17;8.90;99.90
21508;DHT22;10915;54.352;9.074;2022-11-25T17:17:45;8.90;99.90
21508;DHT22;10915;54.352;9.074;2022-11-25T17:20:20;8.90;99.90
21508;DHT22;10915;54.352;9.074;2022-11-25T17:22:48;9.00;99.90
21508;DHT22;10915;54.352;9.074;2022-11-25T17:25:14;9.00;99.90
21508;DHT22;10915;54.352;9.074;2022-11-25T17:27:40;9.00;99.90
21508;DHT22;10915;54.352;9.074;2022-11-25T17:30:16;9.00;99.90
21508;DHT22;10915;54.352;9.074;2022-11-25T17:32:42;9.00;99.90
21508;DHT22;10915;54.352;9.074;2022-11-25T17:35:16;9.00;99.90
21508;DHT22;10915;54.352;9.074;2022-11-25T17:37:42;9.00;99.90
21508;DHT22;10915;54.352;9.074;2022-11-25T17:40:09;9.00;99.90
21508;DHT22;10915;54.352;9.074;2022-11-25T17:42:35;9.00;99.90
21508;DHT22;10915;54.352;9.074;2022-11-25T17:45:01;9.00;99.90
21508;DHT22;10915;54.352;9.074;2022-11-25T17:47:26;9.00;99.90
21508;DHT22;10915;54.352;9.074;2022-11-25T17:49:52;9.10;99.90
21508;DHT22;10915;54.352;9.074;2022-11-25T17:52:18;9.10;99.90
21508;DHT22;10915;54.352;9.074;2022-11-25T17:54:44;9.10;99.90
21508;DHT22;10915;54.352;9.074;2022-11-25T17:57:19;9.00;99.90
21508;DHT22;10915;54.352;9.074;2022-11-25T17:59:46;9.10;99.90
21508;DHT22;10915;54.352;9.074;2022-11-25T18:02:20;9.10;99.90
21508;DHT22;10915;54.352;9.074;2022-11-25T18:04:46;9.00;99.90
21508;DHT22;10915;54.352;9.074;2022-11-25T18:07:12;9.00;99.90
21508;DHT22;10915;54.352;9.074;2022-11-25T18:09:38;9.00;99.90
21508;DHT22;10915;54.352;9.074;2022-11-25T18:12:08;9.10;99.90
21508;DHT22;10915;54.352;9.074;2022-11-25T18:14:37;9.10;99.90
21508;DHT22;10915;54.352;9.074;2022-11-25T18:17:06;9.10;99.90
21508;DHT22;10915;54.352;9.074;2022-11-25T18:19:33;9.10;99.90
21508;DHT22;10915;54.352;9.074;2022-11-25T18:22:13;9.10;99.90
21508;DHT22;10915;54.352;9.074;2022-11-25T18:24:40;9.10;99.90
21508;DHT22;10915;54.352;9.074;2022-11-25T18:27:12;9.10;99.90
21508;DHT22;10915;54.352;9.074;2022-11-25T18:29:39;9.20;99.90
21508;DHT22;10915;54.352;9.074;2022-11-25T18:32:05;9.20;99.90
21508;DHT22;10915;54.352;9.074;2022-11-25T18:34:31;9.20;99.90
21508;DHT22;10915;54.352;9.074;2022-11-25T18:36:56;9.30;99.90
21508;DHT22;10915;54.352;9.074;2022-11-25T18:39:22;9.30;99.90
21508;DHT22;10915;54.352;9.074;2022-11-25T18:41:49;9.30;99.90
21508;DHT22;10915;54.352;9.074;2022-11-25T18:44:22;9.30;99.90
21508;DHT22;10915;54.352;9.074;2022-11-25T18:46:48;9.20;99.90
21508;DHT22;10915;54.352;9.074;2022-11-25T18:49:14;9.30;99.90
21508;DHT22;10915;54.352;9.074;2022-11-25T18:51:40;9.30;99.90
21508;DHT22;10915;54.352;9.074;2022-11-25T18:54:07;9.30;99.90
21508;DHT22;10915;54.352;9.074;2022-11-25T18:56:34;9.30;99.90
21508;DHT22;10915;54.352;9.074;2022-11-25T18:59:01;9.30;99.90
21508;DHT22;10915;54.352;9.074;2022-11-25T19:01:27;9.30;99.90
21508;DHT22;10915;54.352;9.074;2022-11-25T19:03:53;9.30;99.90
21508;DHT22;10915;54.352;9.074;2022-11-25T19:06:20;9.30;99.90
21508;DHT22;10915;54.352;9.074;2022-11-25T19:08:46;9.30;99.90
21508;DHT22;10915;54.352;9.074;2022-11-25T19:11:38;9.30;99.90
21508;DHT22;10915;54.352;9.074;2022-11-25T19:16:55;9.30;99.90
21508;DHT22;10915;54.352;9.074;2022-11-25T19:19:23;9.30;99.90